Map

Track Data

SID SEASON NUMBER BASIN SUBBASIN NAME ISO_TIME NATURE LAT LON WMO_WIND WMO_PRES WMO_AGENCY TRACK_TYPE DIST2LAND LANDFALL IFLAG USA_AGENCY USA_ATCF_ID USA_LAT USA_LON USA_RECORD USA_STATUS USA_WIND USA_PRES USA_SSHS USA_R34_NE USA_R34_SE USA_R34_SW USA_R34_NW USA_R50_NE USA_R50_SE USA_R50_SW USA_R50_NW USA_R64_NE USA_R64_SE USA_R64_SW USA_R64_NW USA_POCI USA_ROCI USA_RMW USA_EYE TOKYO_LAT TOKYO_LON TOKYO_GRADE TOKYO_WIND TOKYO_PRES TOKYO_R50_DIR TOKYO_R50_LONG TOKYO_R50_SHORT TOKYO_R30_DIR TOKYO_R30_LONG TOKYO_R30_SHORT TOKYO_LAND CMA_LAT CMA_LON CMA_CAT CMA_WIND CMA_PRES HKO_LAT HKO_LON HKO_CAT HKO_WIND HKO_PRES NEWDELHI_LAT NEWDELHI_LON NEWDELHI_GRADE NEWDELHI_WIND NEWDELHI_PRES NEWDELHI_CI NEWDELHI_DP NEWDELHI_POCI REUNION_LAT REUNION_LON REUNION_TYPE REUNION_WIND REUNION_PRES REUNION_TNUM REUNION_CI REUNION_RMW REUNION_R34_NE REUNION_R34_SE REUNION_R34_SW REUNION_R34_NW REUNION_R50_NE REUNION_R50_SE REUNION_R50_SW REUNION_R50_NW REUNION_R64_NE REUNION_R64_SE REUNION_R64_SW REUNION_R64_NW BOM_LAT BOM_LON BOM_TYPE BOM_WIND BOM_PRES BOM_TNUM BOM_CI BOM_RMW BOM_R34_NE BOM_R34_SE BOM_R34_SW BOM_R34_NW BOM_R50_NE BOM_R50_SE BOM_R50_SW BOM_R50_NW BOM_R64_NE BOM_R64_SE BOM_R64_SW BOM_R64_NW BOM_ROCI BOM_POCI BOM_EYE BOM_POS_METHOD BOM_PRES_METHOD NADI_LAT NADI_LON NADI_CAT NADI_WIND NADI_PRES WELLINGTON_LAT WELLINGTON_LON WELLINGTON_WIND WELLINGTON_PRES DS824_LAT DS824_LON DS824_STAGE DS824_WIND DS824_PRES TD9636_LAT TD9636_LON TD9636_STAGE TD9636_WIND TD9636_PRES TD9635_LAT TD9635_LON TD9635_WIND TD9635_PRES TD9635_ROCI NEUMANN_LAT NEUMANN_LON NEUMANN_CLASS NEUMANN_WIND NEUMANN_PRES MLC_LAT MLC_LON MLC_CLASS MLC_WIND MLC_PRES USA_GUST BOM_GUST BOM_GUST_PER REUNION_GUST REUNION_GUST_PER USA_SEAHGT USA_SEARAD_NE USA_SEARAD_SE USA_SEARAD_SW USA_SEARAD_NW STORM_SPEED STORM_DIR
1954264N17256 1954 66 EP MM NOT_NAMED 1954-09-21 00:00:00 TS 17.2000 -103.700 45 hurdat_epa main 123 103 O________OO___ hurdat_epa EP081954 17.2000 -103.700 TS 45 0 17.2000 -103.700 TC 45 17.2000 -103.700 2 9 317
1954264N17256 1954 66 EP MM NOT_NAMED 1954-09-21 03:00:00 TS 17.5140 -104.003 main 103 99 P________PP___ EP081954 17.5251 -104.000 TS 45 0 17.5251 -104.000 TC 45 17.4695 -104.016 2 8 315
1954264N17256 1954 66 EP MM NOT_NAMED 1954-09-21 06:00:00 TS 17.7842 -104.305 45 hurdat_epa main 101 101 O________OP___ hurdat_epa EP081954 17.8000 -104.300 TS 45 0 17.8000 -104.300 TC 45 17.7211 -104.326 2 7 309
1954264N17256 1954 66 EP MM NOT_NAMED 1954-09-21 09:00:00 TS 17.9774 -104.605 main 116 113 P________PP___ EP081954 17.9874 -104.600 TS 45 0 17.9874 -104.600 TC 45 17.9370 -104.623 2 6 299
1954264N17256 1954 66 EP MM NOT_NAMED 1954-09-21 12:00:00 TS 18.1000 -104.900 45 hurdat_epa main 118 116 O________OO___ hurdat_epa EP081954 18.1000 -104.900 TS 45 0 18.1000 -104.900 TC 45 18.1000 -104.900 2 6 289
1954264N17256 1954 66 EP MM NOT_NAMED 1954-09-21 15:00:00 TS 18.1718 -105.186 main 119 119 P________PP___ EP081954 18.1649 -105.193 TS 45 0 18.1649 -105.193 TC 45 18.1992 -105.158 2 6 281
1954264N17256 1954 66 EP MM NOT_NAMED 1954-09-21 18:00:00 TS 18.2101 -105.486 45 hurdat_epa main 133 133 O________OP___ hurdat_epa EP081954 18.2000 -105.500 TS 45 0 18.2000 -105.500 TC 45 18.2507 -105.431 2 6 278
1954264N17256 1954 66 EP MM NOT_NAMED 1954-09-21 21:00:00 TS 18.2551 -105.785 main 145 145 P________PP___ EP081954 18.2496 -105.790 TS 45 0 18.2496 -105.790 TC 45 18.2770 -105.764 2 7 278
1954264N17256 1954 66 EP MM NOT_NAMED 1954-09-22 00:00:00 TS 18.3000 -106.200 45 hurdat_epa main 176 176 O________OO___ hurdat_epa EP081954 18.3000 -106.200 TS 45 0 18.3000 -106.200 TC 45 18.3000 -106.200 2 10 275
1954264N17256 1954 66 EP MM NOT_NAMED 1954-09-22 03:00:00 TS 18.3376 -106.850 main 222 222 P________PP___ EP081954 18.3502 -106.848 TS 45 0 18.3502 -106.848 TC 45 18.2872 -106.858 2 13 273
1954264N17256 1954 66 EP MM NOT_NAMED 1954-09-22 06:00:00 TS 18.3766 -107.602 45 hurdat_epa main 282 282 O________OP___ hurdat_epa EP081954 18.4000 -107.600 TS 45 0 18.4000 -107.600 TC 45 18.2832 -107.609 2 14 272
1954264N17256 1954 66 EP MM NOT_NAMED 1954-09-22 09:00:00 TS 18.3857 -108.359 main 353 353 P________PP___ EP081954 18.3978 -108.360 TS 45 0 18.3978 -108.360 TC 45 18.3372 -108.355 2 13 275
1954264N17256 1954 66 EP MM NOT_NAMED 1954-09-22 12:00:00 TS 18.5000 -109.000 45 hurdat_epa main 403 403 O________OO___ hurdat_epa EP081954 18.5000 -109.000 TS 45 0 18.5000 -109.000 TC 45 18.5000 -109.000 2 11 295
1954264N17256 1954 66 EP MM NOT_NAMED 1954-09-22 15:00:00 TS 18.8412 -109.369 main 426 403 P________PP___ EP081954 18.8320 -109.360 TS 45 0 18.8320 -109.360 TC 45 18.8780 -109.402 2 10 324
1954264N17256 1954 66 EP MM NOT_NAMED 1954-09-22 18:00:00 TS 19.3121 -109.619 45 hurdat_epa main 403 346 O________OP___ hurdat_epa EP081954 19.3000 -109.600 TS 45 0 19.3000 -109.600 TC 45 19.3604 -109.697 2 11 333
1954264N17256 1954 66 EP MM NOT_NAMED 1954-09-22 21:00:00 TS 19.8365 -109.903 main 346 291 P________PP___ EP081954 19.8299 -109.892 TS 45 0 19.8299 -109.892 TC 45 19.8627 -109.943 2 11 331
1954264N17256 1954 66 EP MM NOT_NAMED 1954-09-23 00:00:00 TS 20.3000 -110.200 45 hurdat_epa main 291 271 O________OO___ hurdat_epa EP081954 20.3000 -110.200 TS 45 0 20.3000 -110.200 TC 45 20.3000 -110.200 2 9 320
1954264N17256 1954 66 EP MM NOT_NAMED 1954-09-23 03:00:00 TS 20.5568 -110.541 main 262 256 P________PP___ EP081954 20.5524 -110.535 TS 45 0 20.5524 -110.535 TC 45 20.5744 -110.562 2 8 302
1954264N17256 1954 66 EP MM NOT_NAMED 1954-09-23 06:00:00 TS 20.7140 -110.909 45 hurdat_epa main 262 256 O________OP___ hurdat_epa EP081954 20.7000 -110.900 TS 45 0 20.7000 -110.900 TC 45 20.7701 -110.943 2 8 294
1954264N17256 1954 66 EP MM NOT_NAMED 1954-09-23 09:00:00 TS 20.8732 -111.312 main 260 260 P________PP___ EP081954 20.8651 -111.308 TS 45 0 20.8651 -111.308 TC 45 20.9057 -111.327 2 8 291
1954264N17256 1954 66 EP MM NOT_NAMED 1954-09-23 12:00:00 TS 21.0000 -111.700 45 hurdat_epa main 275 273 O________OO___ hurdat_epa EP081954 21.0000 -111.700 TS 45 0 21.0000 -111.700 TC 45 21.0000 -111.700 2 7 291
1954264N17256 1954 66 EP MM NOT_NAMED 1954-09-23 15:00:00 TS 21.1190 -112.009 main 288 287 P________PP___ EP081954 21.1223 -112.008 TS 45 0 21.1223 -112.008 TC 45 21.1055 -112.015 2 6 289
1954264N17256 1954 66 EP MM NOT_NAMED 1954-09-23 18:00:00 TS 21.1948 -112.304 45 hurdat_epa main 303 303 O________OP___ hurdat_epa EP081954 21.2000 -112.300 TS 45 0 21.2000 -112.300 TC 45 21.1740 -112.320 2 6 280
1954264N17256 1954 66 EP MM NOT_NAMED 1954-09-23 21:00:00 TS 21.2189 -112.624 main 328 328 P________PP___ EP081954 21.2223 -112.620 TS 45 0 21.2223 -112.620 TC 45 21.2055 -112.640 2 6 270
1954264N17256 1954 66 EP MM NOT_NAMED 1954-09-24 00:00:00 TS 21.2000 -113.000 45 hurdat_epa main 362 362 O________OO___ hurdat_epa EP081954 21.2000 -113.000 TS 45 0 21.2000 -113.000 TC 45 21.2000 -113.000 2 8 266
1954264N17256 1954 66 EP MM NOT_NAMED 1954-09-24 03:00:00 TS 21.1660 -113.479 main 407 407 P________PP___ EP081954 21.1651 -113.485 TS 45 0 21.1651 -113.485 TC 45 21.1696 -113.457 2 9 264
1954264N17256 1954 66 EP MM NOT_NAMED 1954-09-24 06:00:00 TS 21.1007 -113.990 45 hurdat_epa main 441 441 O________OP___ hurdat_epa EP081954 21.1000 -114.000 TS 45 0 21.1000 -114.000 TC 45 21.1033 -113.950 2 9 261
1954264N17256 1954 66 EP MM NOT_NAMED 1954-09-24 09:00:00 TS 21.0140 -114.473 main 479 479 P________PP___ EP081954 21.0150 -114.480 TS 45 0 21.0150 -114.480 TC 45 21.0102 -114.444 2 9 257
1954264N17256 1954 66 EP MM NOT_NAMED 1954-09-24 12:00:00 TS 20.9000 -114.900 45 hurdat_epa main 512 512 O________OO___ hurdat_epa EP081954 20.9000 -114.900 TS 45 0 20.9000 -114.900 TC 45 20.9000 -114.900 2 7 250
1954264N17256 1954 66 EP MM NOT_NAMED 1954-09-24 15:00:00 TS 20.7526 -115.221 main 539 539 P________PP___ EP081954 20.7498 -115.215 TS 45 0 20.7498 -115.215 TC 45 20.7640 -115.244 2 6 243
1954264N17256 1954 66 EP MM NOT_NAMED 1954-09-24 18:00:00 TS 20.6037 -115.510 45 hurdat_epa main 575 575 O________OP___ hurdat_epa EP081954 20.6000 -115.500 TS 45 0 20.6000 -115.500 TC 45 20.6186 -115.550 2 6 245
1954264N17256 1954 66 EP MM NOT_NAMED 1954-09-24 21:00:00 TS 20.4797 -115.833 main 603 603 P________PP___ EP081954 20.4774 -115.828 TS 45 0 20.4774 -115.828 TC 45 20.4890 -115.857 2 7 253
1954264N17256 1954 66 EP MM NOT_NAMED 1954-09-25 00:00:00 TS 20.4000 -116.200 45 hurdat_epa main 638 638 O________OO___ hurdat_epa EP081954 20.4000 -116.200 TS 45 0 20.4000 -116.200 TC 45 20.4000 -116.200 2 8 262
1954264N17256 1954 66 EP MM NOT_NAMED 1954-09-25 03:00:00 TS 20.3800 -116.631 main 666 666 P________PP___ EP081954 20.3774 -116.627 TS 45 0 20.3774 -116.627 TC 45 20.3904 -116.647 2 9 270
1954264N17256 1954 66 EP MM NOT_NAMED 1954-09-25 06:00:00 TS 20.4041 -117.107 45 hurdat_epa main 703 703 O________OP___ hurdat_epa EP081954 20.4000 -117.100 TS 45 0 20.4000 -117.100 TC 45 20.4206 -117.134 2 9 275
1954264N17256 1954 66 EP MM NOT_NAMED 1954-09-25 09:00:00 TS 20.4531 -117.612 main 733 733 P________PP___ EP081954 20.4500 -117.607 TS 45 0 20.4500 -117.607 TC 45 20.4654 -117.629 2 9 276
1954264N17256 1954 66 EP MM NOT_NAMED 1954-09-25 12:00:00 TS 20.5000 -118.100 45 hurdat_epa main 772 772 O________OO___ hurdat_epa EP081954 20.5000 -118.100 TS 45 0 20.5000 -118.100 TC 45 20.5000 -118.100 2 9 274
1954264N17256 1954 66 EP MM NOT_NAMED 1954-09-25 15:00:00 TS 20.5097 -118.520 main 805 805 P________PP___ EP081954 20.5148 -118.523 TS 45 0 20.5148 -118.523 TC 45 20.4889 -118.512 2 7 269
1954264N17256 1954 66 EP MM NOT_NAMED 1954-09-25 18:00:00 TS 20.4929 -118.899 45 hurdat_epa main 838 838 O________OP___ hurdat_epa EP081954 20.5000 -118.900 TS 45 0 20.5000 -118.900 TC 45 20.4644 -118.895 2 7 265
1954264N17256 1954 66 EP MM NOT_NAMED 1954-09-25 21:00:00 TS 20.4465 -119.257 main 878 878 P________PP___ EP081954 20.4499 -119.258 TS 45 0 20.4499 -119.258 TC 45 20.4328 -119.256 2 7 262
1954264N17256 1954 66 EP MM NOT_NAMED 1954-09-26 00:00:00 TS 20.4000 -119.600 45 hurdat_epa main 904 904 O________OO___ hurdat_epa EP081954 20.4000 -119.600 TS 45 0 20.4000 -119.600 TC 45 20.4000 -119.600 2 7 266
1954264N17256 1954 66 EP MM NOT_NAMED 1954-09-26 03:00:00 TS 20.4006 -119.952 main 939 939 P________PP___ EP081954 20.4000 -119.957 TS 45 0 20.4000 -119.957 TC 45 20.4030 -119.931 2 6 270
1954264N17256 1954 66 EP MM NOT_NAMED 1954-09-26 06:00:00 TS 20.4004 -120.290 45 hurdat_epa main 965 965 O________OP___ hurdat_epa EP081954 20.4000 -120.300 TS 45 0 20.4000 -120.300 TC 45 20.4019 -120.249 2 6 267
1954264N17256 1954 66 EP MM NOT_NAMED 1954-09-26 09:00:00 TS 20.3728 -120.588 main 987 987 P________PP___ EP081954 20.3723 -120.592 TS 45 0 20.3723 -120.592 TC 45 20.3749 -120.568 2 6 260
1954264N17256 1954 66 EP MM NOT_NAMED 1954-09-26 12:00:00 TS 20.3000 -120.900 45 hurdat_epa main 1015 1015 O________OO___ hurdat_epa EP081954 20.3000 -120.900 TS 45 0 20.3000 -120.900 TC 45 20.3000 -120.900 2 7 253
1954264N17256 1954 66 EP MM NOT_NAMED 1954-09-26 15:00:00 TS 20.1725 -121.287 main 1050 1050 P________PP___ EP081954 20.1800 -121.292 TS 45 0 20.1800 -121.292 TC 45 20.1422 -121.265 2 8 247
1954264N17256 1954 66 EP MM NOT_NAMED 1954-09-26 18:00:00 TS 19.9875 -121.689 45 hurdat_epa main 1094 1094 O________OP___ hurdat_epa EP081954 20.0000 -121.700 TS 45 0 20.0000 -121.700 TC 45 19.9375 -121.643 2 8 239
1954264N17256 1954 66 EP MM NOT_NAMED 1954-09-26 21:00:00 TS 19.7427 -122.051 main 1147 1147 P________PP___ EP081954 19.7499 -122.058 TS 45 0 19.7499 -122.058 TC 45 19.7140 -122.025 2 8 234
1954264N17256 1954 66 EP MM NOT_NAMED 1954-09-27 00:00:00 TS 19.5000 -122.400 45 hurdat_epa main 1185 1185 O________OO___ hurdat_epa EP081954 19.5000 -122.400 TS 45 0 19.5000 -122.400 TC 45 19.5000 -122.400 2 8 238
1954264N17256 1954 66 EP MM NOT_NAMED 1954-09-27 03:00:00 TS 19.3314 -122.752 main 1229 1229 P________PP___ EP081954 19.3349 -122.750 TS 45 0 19.3349 -122.750 TC 45 19.3174 -122.763 2 7 245
1954264N17256 1954 66 EP MM NOT_NAMED 1954-09-27 06:00:00 TS 19.1926 -123.103 45 hurdat_epa main 1257 1257 O________OP___ hurdat_epa EP081954 19.2000 -123.100 TS 45 0 19.2000 -123.100 TC 45 19.1629 -123.115 2 7 247
1954264N17256 1954 66 EP MM NOT_NAMED 1954-09-27 09:00:00 TS 19.0495 -123.452 main 1302 1302 P________PP___ EP081954 19.0551 -123.450 TS 45 0 19.0551 -123.450 TC 45 19.0269 -123.459 2 7 246
1954264N17256 1954 66 EP MM NOT_NAMED 1954-09-27 12:00:00 TS 18.9000 -123.800 45 hurdat_epa main 1331 O________OO___ hurdat_epa EP081954 18.9000 -123.800 TS 45 0 18.9000 -123.800 TC 45 18.9000 -123.800 2 7 245

About IBTrACS Database

This database is a web-friendly format of International Best Track Archive for Climate Stewardship (IBTrACS), a global best track data archive curated by NOAA dating back to 1842.

Updated: 2021-10-08